sensor_id;sensor_type;location;lat;lon;timestamp;P1;durP1;ratioP1;P2;durP2;ratioP2
13122;SDS011;6627;50.920;12.050;2024-01-27T00:01:29;5.57;;;1.53;;
13122;SDS011;6627;50.920;12.050;2024-01-27T00:03:58;10.40;;;2.03;;
13122;SDS011;6627;50.920;12.050;2024-01-27T00:06:27;5.63;;;1.77;;
13122;SDS011;6627;50.920;12.050;2024-01-27T00:08:56;10.03;;;1.90;;
13122;SDS011;6627;50.920;12.050;2024-01-27T00:11:23;7.60;;;1.73;;
13122;SDS011;6627;50.920;12.050;2024-01-27T00:13:54;8.93;;;1.97;;
13122;SDS011;6627;50.920;12.050;2024-01-27T00:16:22;8.73;;;1.80;;
13122;SDS011;6627;50.920;12.050;2024-01-27T00:19:06;5.73;;;1.77;;
13122;SDS011;6627;50.920;12.050;2024-01-27T00:21:46;3.23;;;1.00;;
13122;SDS011;6627;50.920;12.050;2024-01-27T00:24:33;10.90;;;2.27;;
13122;SDS011;6627;50.920;12.050;2024-01-27T00:27:01;6.97;;;1.80;;
13122;SDS011;6627;50.920;12.050;2024-01-27T00:29:31;9.20;;;1.53;;
13122;SDS011;6627;50.920;12.050;2024-01-27T00:32:13;10.40;;;1.90;;
13122;SDS011;6627;50.920;12.050;2024-01-27T00:34:43;7.50;;;1.60;;
13122;SDS011;6627;50.920;12.050;2024-01-27T00:37:11;8.87;;;1.60;;
13122;SDS011;6627;50.920;12.050;2024-01-27T00:39:38;10.07;;;1.60;;
13122;SDS011;6627;50.920;12.050;2024-01-27T00:42:06;5.87;;;1.60;;
13122;SDS011;6627;50.920;12.050;2024-01-27T00:44:37;7.27;;;2.17;;
13122;SDS011;6627;50.920;12.050;2024-01-27T00:47:05;3.87;;;1.50;;
13122;SDS011;6627;50.920;12.050;2024-01-27T00:49:46;9.37;;;1.93;;
13122;SDS011;6627;50.920;12.050;2024-01-27T00:52:24;8.27;;;2.27;;
13122;SDS011;6627;50.920;12.050;2024-01-27T00:54:54;6.10;;;1.60;;
13122;SDS011;6627;50.920;12.050;2024-01-27T00:57:41;7.10;;;1.70;;
13122;SDS011;6627;50.920;12.050;2024-01-27T01:00:29;8.03;;;1.67;;
13122;SDS011;6627;50.920;12.050;2024-01-27T01:02:57;4.17;;;1.37;;
13122;SDS011;6627;50.920;12.050;2024-01-27T01:05:36;7.67;;;2.13;;
13122;SDS011;6627;50.920;12.050;2024-01-27T01:08:19;13.63;;;1.80;;
13122;SDS011;6627;50.920;12.050;2024-01-27T01:10:47;6.73;;;1.63;;
13122;SDS011;6627;50.920;12.050;2024-01-27T01:13:16;8.70;;;2.00;;
13122;SDS011;6627;50.920;12.050;2024-01-27T01:15:45;4.97;;;2.00;;
13122;SDS011;6627;50.920;12.050;2024-01-27T01:18:32;11.60;;;2.13;;
13122;SDS011;6627;50.920;12.050;2024-01-27T01:21:19;6.93;;;1.97;;
13122;SDS011;6627;50.920;12.050;2024-01-27T01:24:06;8.40;;;1.80;;
13122;SDS011;6627;50.920;12.050;2024-01-27T01:26:36;9.63;;;2.17;;
13122;SDS011;6627;50.920;12.050;2024-01-27T01:29:23;7.10;;;2.17;;
13122;SDS011;6627;50.920;12.050;2024-01-27T01:31:54;5.57;;;1.60;;
13122;SDS011;6627;50.920;12.050;2024-01-27T01:34:28;7.30;;;1.87;;
13122;SDS011;6627;50.920;12.050;2024-01-27T01:36:58;8.13;;;2.00;;
13122;SDS011;6627;50.920;12.050;2024-01-27T01:39:28;4.30;;;1.67;;
13122;SDS011;6627;50.920;12.050;2024-01-27T01:41:57;8.27;;;1.93;;
13122;SDS011;6627;50.920;12.050;2024-01-27T01:44:25;13.43;;;2.57;;
13122;SDS011;6627;50.920;12.050;2024-01-27T01:46:59;6.77;;;1.60;;
13122;SDS011;6627;50.920;12.050;2024-01-27T01:49:27;9.50;;;2.03;;
13122;SDS011;6627;50.920;12.050;2024-01-27T01:51:55;10.70;;;2.43;;
13122;SDS011;6627;50.920;12.050;2024-01-27T01:54:37;9.17;;;1.70;;
13122;SDS011;6627;50.920;12.050;2024-01-27T01:57:07;9.60;;;2.40;;
13122;SDS011;6627;50.920;12.050;2024-01-27T01:59:36;11.63;;;2.27;;
13122;SDS011;6627;50.920;12.050;2024-01-27T02:02:08;7.87;;;2.00;;
13122;SDS011;6627;50.920;12.050;2024-01-27T02:04:55;10.00;;;2.37;;
13122;SDS011;6627;50.920;12.050;2024-01-27T02:07:22;6.87;;;1.87;;
13122;SDS011;6627;50.920;12.050;2024-01-27T02:09:50;7.77;;;2.00;;
13122;SDS011;6627;50.920;12.050;2024-01-27T02:12:36;9.23;;;2.10;;
13122;SDS011;6627;50.920;12.050;2024-01-27T02:15:03;6.93;;;1.33;;
13122;SDS011;6627;50.920;12.050;2024-01-27T02:17:52;7.97;;;1.97;;
13122;SDS011;6627;50.920;12.050;2024-01-27T02:20:19;6.00;;;2.17;;
13122;SDS011;6627;50.920;12.050;2024-01-27T02:22:48;9.23;;;2.13;;
13122;SDS011;6627;50.920;12.050;2024-01-27T02:25:36;12.43;;;2.13;;
13122;SDS011;6627;50.920;12.050;2024-01-27T02:28:04;10.00;;;1.80;;
13122;SDS011;6627;50.920;12.050;2024-01-27T02:30:35;10.70;;;2.00;;
13122;SDS011;6627;50.920;12.050;2024-01-27T02:33:03;7.67;;;1.90;;
13122;SDS011;6627;50.920;12.050;2024-01-27T02:35:32;9.57;;;1.87;;
13122;SDS011;6627;50.920;12.050;2024-01-27T02:38:19;7.10;;;1.90;;
13122;SDS011;6627;50.920;12.050;2024-01-27T02:41:06;8.90;;;2.40;;
13122;SDS011;6627;50.920;12.050;2024-01-27T02:43:33;12.73;;;1.90;;
13122;SDS011;6627;50.920;12.050;2024-01-27T02:46:01;8.20;;;1.60;;
13122;SDS011;6627;50.920;12.050;2024-01-27T02:48:48;7.87;;;2.17;;
13122;SDS011;6627;50.920;12.050;2024-01-27T02:51:21;5.83;;;1.90;;
13122;SDS011;6627;50.920;12.050;2024-01-27T02:54:08;12.50;;;2.30;;
13122;SDS011;6627;50.920;12.050;2024-01-27T02:56:38;7.23;;;1.77;;
13122;SDS011;6627;50.920;12.050;2024-01-27T02:59:13;6.63;;;2.37;;
13122;SDS011;6627;50.920;12.050;2024-01-27T03:02:00;7.23;;;1.83;;
13122;SDS011;6627;50.920;12.050;2024-01-27T03:04:37;9.93;;;2.10;;
13122;SDS011;6627;50.920;12.050;2024-01-27T03:07:20;7.97;;;2.10;;
13122;SDS011;6627;50.920;12.050;2024-01-27T03:10:06;9.47;;;1.53;;
13122;SDS011;6627;50.920;12.050;2024-01-27T03:12:36;11.83;;;2.33;;
13122;SDS011;6627;50.920;12.050;2024-01-27T03:15:07;9.27;;;2.60;;
13122;SDS011;6627;50.920;12.050;2024-01-27T03:17:36;14.87;;;2.10;;
13122;SDS011;6627;50.920;12.050;2024-01-27T03:20:05;11.07;;;2.03;;
13122;SDS011;6627;50.920;12.050;2024-01-27T03:22:44;8.47;;;2.57;;
13122;SDS011;6627;50.920;12.050;2024-01-27T03:25:24;9.53;;;2.00;;
13122;SDS011;6627;50.920;12.050;2024-01-27T03:27:56;6.40;;;1.80;;
13122;SDS011;6627;50.920;12.050;2024-01-27T03:30:24;10.97;;;2.33;;
13122;SDS011;6627;50.920;12.050;2024-01-27T03:32:53;13.23;;;2.10;;
13122;SDS011;6627;50.920;12.050;2024-01-27T03:35:21;5.80;;;1.73;;
13122;SDS011;6627;50.920;12.050;2024-01-27T03:37:49;3.53;;;1.50;;
13122;SDS011;6627;50.920;12.050;2024-01-27T03:40:18;9.87;;;2.23;;
13122;SDS011;6627;50.920;12.050;2024-01-27T03:42:47;8.60;;;2.30;;
13122;SDS011;6627;50.920;12.050;2024-01-27T03:45:15;5.17;;;1.57;;
13122;SDS011;6627;50.920;12.050;2024-01-27T03:47:43;10.93;;;1.83;;
13122;SDS011;6627;50.920;12.050;2024-01-27T03:50:29;11.13;;;2.03;;
13122;SDS011;6627;50.920;12.050;2024-01-27T03:53:16;9.30;;;1.90;;
13122;SDS011;6627;50.920;12.050;2024-01-27T03:56:03;9.73;;;2.10;;
13122;SDS011;6627;50.920;12.050;2024-01-27T03:58:51;7.10;;;1.97;;
13122;SDS011;6627;50.920;12.050;2024-01-27T04:01:21;7.70;;;1.90;;
13122;SDS011;6627;50.920;12.050;2024-01-27T04:03:48;14.97;;;2.60;;
13122;SDS011;6627;50.920;12.050;2024-01-27T04:06:18;8.73;;;2.40;;
13122;SDS011;6627;50.920;12.050;2024-01-27T04:08:46;8.27;;;2.07;;
13122;SDS011;6627;50.920;12.050;2024-01-27T04:11:20;9.30;;;2.10;;
13122;SDS011;6627;50.920;12.050;2024-01-27T04:13:53;9.33;;;2.47;;
13122;SDS011;6627;50.920;12.050;2024-01-27T04:16:25;11.67;;;2.30;;
13122;SDS011;6627;50.920;12.050;2024-01-27T04:18:52;9.93;;;2.07;;
13122;SDS011;6627;50.920;12.050;2024-01-27T04:21:21;9.73;;;2.53;;
13122;SDS011;6627;50.920;12.050;2024-01-27T04:23:49;9.97;;;2.20;;
13122;SDS011;6627;50.920;12.050;2024-01-27T04:26:17;9.57;;;1.87;;
13122;SDS011;6627;50.920;12.050;2024-01-27T04:28:45;9.77;;;2.20;;
13122;SDS011;6627;50.920;12.050;2024-01-27T04:31:14;8.20;;;2.47;;
13122;SDS011;6627;50.920;12.050;2024-01-27T04:33:43;14.77;;;2.60;;
13122;SDS011;6627;50.920;12.050;2024-01-27T04:36:11;7.40;;;1.97;;
13122;SDS011;6627;50.920;12.050;2024-01-27T04:38:38;6.73;;;1.90;;
13122;SDS011;6627;50.920;12.050;2024-01-27T04:41:08;10.77;;;2.23;;
13122;SDS011;6627;50.920;12.050;2024-01-27T04:43:36;13.73;;;2.40;;
13122;SDS011;6627;50.920;12.050;2024-01-27T04:46:05;10.47;;;2.30;;
13122;SDS011;6627;50.920;12.050;2024-01-27T04:48:33;8.70;;;2.27;;
13122;SDS011;6627;50.920;12.050;2024-01-27T04:51:03;7.60;;;2.07;;
13122;SDS011;6627;50.920;12.050;2024-01-27T04:53:50;10.13;;;2.17;;
13122;SDS011;6627;50.920;12.050;2024-01-27T04:56:20;6.23;;;1.87;;
13122;SDS011;6627;50.920;12.050;2024-01-27T04:58:48;9.20;;;2.27;;
13122;SDS011;6627;50.920;12.050;2024-01-27T05:01:16;10.70;;;2.23;;
13122;SDS011;6627;50.920;12.050;2024-01-27T05:03:44;13.90;;;2.60;;
13122;SDS011;6627;50.920;12.050;2024-01-27T05:06:15;6.20;;;1.90;;
13122;SDS011;6627;50.920;12.050;2024-01-27T05:08:43;10.83;;;2.40;;
13122;SDS011;6627;50.920;12.050;2024-01-27T05:11:12;9.87;;;2.60;;
13122;SDS011;6627;50.920;12.050;2024-01-27T05:13:39;9.17;;;1.93;;
13122;SDS011;6627;50.920;12.050;2024-01-27T05:16:07;8.60;;;2.23;;
13122;SDS011;6627;50.920;12.050;2024-01-27T05:18:36;9.77;;;2.07;;
13122;SDS011;6627;50.920;12.050;2024-01-27T05:21:04;12.27;;;2.60;;
13122;SDS011;6627;50.920;12.050;2024-01-27T05:23:34;8.80;;;2.00;;
13122;SDS011;6627;50.920;12.050;2024-01-27T05:26:03;9.47;;;2.03;;
13122;SDS011;6627;50.920;12.050;2024-01-27T05:28:40;14.63;;;2.27;;
13122;SDS011;6627;50.920;12.050;2024-01-27T05:31:08;10.87;;;1.83;;
13122;SDS011;6627;50.920;12.050;2024-01-27T05:33:37;5.60;;;2.07;;
13122;SDS011;6627;50.920;12.050;2024-01-27T05:36:24;10.83;;;2.30;;
13122;SDS011;6627;50.920;12.050;2024-01-27T05:38:54;5.83;;;2.23;;
13122;SDS011;6627;50.920;12.050;2024-01-27T05:41:25;11.70;;;2.27;;
13122;SDS011;6627;50.920;12.050;2024-01-27T05:43:55;12.07;;;2.53;;
13122;SDS011;6627;50.920;12.050;2024-01-27T05:46:24;10.97;;;2.50;;
13122;SDS011;6627;50.920;12.050;2024-01-27T05:48:54;9.73;;;2.43;;
13122;SDS011;6627;50.920;12.050;2024-01-27T05:51:26;8.30;;;2.17;;
13122;SDS011;6627;50.920;12.050;2024-01-27T05:53:56;9.73;;;2.30;;
13122;SDS011;6627;50.920;12.050;2024-01-27T05:56:24;9.47;;;2.13;;
13122;SDS011;6627;50.920;12.050;2024-01-27T05:59:07;11.47;;;2.53;;
13122;SDS011;6627;50.920;12.050;2024-01-27T06:01:35;6.70;;;1.90;;
13122;SDS011;6627;50.920;12.050;2024-01-27T06:04:16;10.37;;;2.30;;
13122;SDS011;6627;50.920;12.050;2024-01-27T06:06:44;12.40;;;2.30;;
13122;SDS011;6627;50.920;12.050;2024-01-27T06:09:14;15.93;;;3.40;;
13122;SDS011;6627;50.920;12.050;2024-01-27T06:11:44;8.03;;;2.73;;
13122;SDS011;6627;50.920;12.050;2024-01-27T06:14:11;15.27;;;2.63;;
13122;SDS011;6627;50.920;12.050;2024-01-27T06:16:58;14.40;;;2.60;;
13122;SDS011;6627;50.920;12.050;2024-01-27T06:19:28;9.57;;;2.50;;
13122;SDS011;6627;50.920;12.050;2024-01-27T06:22:04;13.37;;;2.20;;
13122;SDS011;6627;50.920;12.050;2024-01-27T06:24:35;7.90;;;2.33;;
13122;SDS011;6627;50.920;12.050;2024-01-27T06:27:08;11.17;;;2.67;;
13122;SDS011;6627;50.920;12.050;2024-01-27T06:29:55;12.43;;;2.73;;
13122;SDS011;6627;50.920;12.050;2024-01-27T06:32:37;9.53;;;2.03;;
13122;SDS011;6627;50.920;12.050;2024-01-27T06:35:08;10.47;;;2.33;;
13122;SDS011;6627;50.920;12.050;2024-01-27T06:37:36;15.00;;;2.43;;
13122;SDS011;6627;50.920;12.050;2024-01-27T06:40:08;12.20;;;2.30;;
13122;SDS011;6627;50.920;12.050;2024-01-27T06:42:38;6.57;;;2.57;;
13122;SDS011;6627;50.920;12.050;2024-01-27T06:45:06;10.13;;;2.57;;
13122;SDS011;6627;50.920;12.050;2024-01-27T06:47:35;11.70;;;2.17;;
13122;SDS011;6627;50.920;12.050;2024-01-27T06:50:04;9.40;;;2.40;;
13122;SDS011;6627;50.920;12.050;2024-01-27T06:52:33;11.10;;;2.40;;
13122;SDS011;6627;50.920;12.050;2024-01-27T06:55:01;13.17;;;2.63;;
13122;SDS011;6627;50.920;12.050;2024-01-27T06:57:37;11.63;;;2.67;;
13122;SDS011;6627;50.920;12.050;2024-01-27T07:00:10;8.57;;;2.60;;
13122;SDS011;6627;50.920;12.050;2024-01-27T07:02:40;15.77;;;2.60;;
13122;SDS011;6627;50.920;12.050;2024-01-27T07:05:10;12.50;;;2.47;;
13122;SDS011;6627;50.920;12.050;2024-01-27T07:07:38;11.80;;;2.80;;
13122;SDS011;6627;50.920;12.050;2024-01-27T07:10:08;14.20;;;3.37;;
13122;SDS011;6627;50.920;12.050;2024-01-27T07:12:37;11.10;;;2.50;;
13122;SDS011;6627;50.920;12.050;2024-01-27T07:15:05;8.33;;;2.73;;
13122;SDS011;6627;50.920;12.050;2024-01-27T07:17:33;11.00;;;2.30;;
13122;SDS011;6627;50.920;12.050;2024-01-27T07:20:02;11.60;;;2.37;;
13122;SDS011;6627;50.920;12.050;2024-01-27T07:22:48;12.13;;;2.57;;
13122;SDS011;6627;50.920;12.050;2024-01-27T07:25:35;14.03;;;2.87;;
13122;SDS011;6627;50.920;12.050;2024-01-27T07:28:16;12.00;;;2.40;;
13122;SDS011;6627;50.920;12.050;2024-01-27T07:31:03;13.67;;;2.90;;
13122;SDS011;6627;50.920;12.050;2024-01-27T07:33:43;14.03;;;2.77;;
13122;SDS011;6627;50.920;12.050;2024-01-27T07:36:18;11.33;;;2.93;;
13122;SDS011;6627;50.920;12.050;2024-01-27T07:38:48;9.77;;;2.90;;
13122;SDS011;6627;50.920;12.050;2024-01-27T07:41:16;9.70;;;2.87;;
13122;SDS011;6627;50.920;12.050;2024-01-27T07:43:46;11.77;;;3.07;;
13122;SDS011;6627;50.920;12.050;2024-01-27T07:46:33;12.57;;;3.10;;
13122;SDS011;6627;50.920;12.050;2024-01-27T07:49:08;7.33;;;3.10;;
13122;SDS011;6627;50.920;12.050;2024-01-27T07:51:38;10.80;;;3.53;;
13122;SDS011;6627;50.920;12.050;2024-01-27T07:54:05;13.97;;;2.97;;
13122;SDS011;6627;50.920;12.050;2024-01-27T07:56:46;16.60;;;3.40;;
13122;SDS011;6627;50.920;12.050;2024-01-27T07:59:33;15.40;;;3.23;;
13122;SDS011;6627;50.920;12.050;2024-01-27T08:02:20;9.33;;;2.23;;
13122;SDS011;6627;50.920;12.050;2024-01-27T08:04:48;11.87;;;3.30;;
13122;SDS011;6627;50.920;12.050;2024-01-27T08:07:16;10.57;;;2.93;;
13122;SDS011;6627;50.920;12.050;2024-01-27T08:09:43;10.33;;;2.90;;
13122;SDS011;6627;50.920;12.050;2024-01-27T08:12:18;9.73;;;2.80;;
13122;SDS011;6627;50.920;12.050;2024-01-27T08:14:56;11.53;;;3.00;;
13122;SDS011;6627;50.920;12.050;2024-01-27T08:17:24;11.70;;;2.70;;
13122;SDS011;6627;50.920;12.050;2024-01-27T08:19:55;10.97;;;3.10;;
13122;SDS011;6627;50.920;12.050;2024-01-27T08:22:22;15.17;;;3.20;;
13122;SDS011;6627;50.920;12.050;2024-01-27T08:25:06;10.97;;;2.67;;
13122;SDS011;6627;50.920;12.050;2024-01-27T08:27:36;10.57;;;3.30;;
13122;SDS011;6627;50.920;12.050;2024-01-27T08:30:05;16.33;;;2.73;;
13122;SDS011;6627;50.920;12.050;2024-01-27T08:32:34;13.30;;;3.40;;
13122;SDS011;6627;50.920;12.050;2024-01-27T08:35:01;10.77;;;2.77;;
13122;SDS011;6627;50.920;12.050;2024-01-27T08:37:48;9.93;;;2.70;;
13122;SDS011;6627;50.920;12.050;2024-01-27T08:40:23;11.27;;;2.77;;
13122;SDS011;6627;50.920;12.050;2024-01-27T08:42:51;9.53;;;2.57;;
13122;SDS011;6627;50.920;12.050;2024-01-27T08:45:22;15.83;;;3.10;;
13122;SDS011;6627;50.920;12.050;2024-01-27T08:47:50;14.20;;;3.13;;
13122;SDS011;6627;50.920;12.050;2024-01-27T08:50:18;9.73;;;2.57;;
13122;SDS011;6627;50.920;12.050;2024-01-27T08:52:47;13.43;;;3.00;;
13122;SDS011;6627;50.920;12.050;2024-01-27T08:55:27;11.13;;;2.40;;
13122;SDS011;6627;50.920;12.050;2024-01-27T08:57:55;11.10;;;2.97;;
13122;SDS011;6627;50.920;12.050;2024-01-27T09:00:24;9.77;;;3.20;;
13122;SDS011;6627;50.920;12.050;2024-01-27T09:02:52;15.77;;;3.07;;
13122;SDS011;6627;50.920;12.050;2024-01-27T09:05:20;16.40;;;2.67;;
13122;SDS011;6627;50.920;12.050;2024-01-27T09:07:48;13.87;;;2.90;;
13122;SDS011;6627;50.920;12.050;2024-01-27T09:10:18;12.97;;;2.10;;
13122;SDS011;6627;50.920;12.050;2024-01-27T09:12:49;9.37;;;3.00;;
13122;SDS011;6627;50.920;12.050;2024-01-27T09:15:16;15.50;;;3.17;;
13122;SDS011;6627;50.920;12.050;2024-01-27T09:17:48;11.07;;;2.33;;
13122;SDS011;6627;50.920;12.050;2024-01-27T09:20:36;11.23;;;2.50;;
13122;SDS011;6627;50.920;12.050;2024-01-27T09:23:15;13.90;;;3.17;;
13122;SDS011;6627;50.920;12.050;2024-01-27T09:26:02;12.73;;;3.20;;
13122;SDS011;6627;50.920;12.050;2024-01-27T09:28:32;16.23;;;3.43;;
13122;SDS011;6627;50.920;12.050;2024-01-27T09:31:00;13.87;;;3.07;;
13122;SDS011;6627;50.920;12.050;2024-01-27T09:33:31;7.23;;;2.50;;
13122;SDS011;6627;50.920;12.050;2024-01-27T09:36:06;12.87;;;2.73;;
13122;SDS011;6627;50.920;12.050;2024-01-27T09:38:42;10.47;;;3.20;;
13122;SDS011;6627;50.920;12.050;2024-01-27T09:41:23;15.93;;;2.93;;
13122;SDS011;6627;50.920;12.050;2024-01-27T09:44:07;11.47;;;3.20;;
13122;SDS011;6627;50.920;12.050;2024-01-27T09:46:53;14.63;;;3.20;;
13122;SDS011;6627;50.920;12.050;2024-01-27T09:49:23;11.57;;;3.10;;
13122;SDS011;6627;50.920;12.050;2024-01-27T09:51:55;8.03;;;2.87;;
13122;SDS011;6627;50.920;12.050;2024-01-27T09:54:23;16.83;;;3.77;;
13122;SDS011;6627;50.920;12.050;2024-01-27T09:56:51;12.80;;;3.63;;
13122;SDS011;6627;50.920;12.050;2024-01-27T09:59:20;14.67;;;3.37;;
13122;SDS011;6627;50.920;12.050;2024-01-27T10:02:08;10.87;;;2.90;;
13122;SDS011;6627;50.920;12.050;2024-01-27T10:04:58;13.53;;;3.13;;
13122;SDS011;6627;50.920;12.050;2024-01-27T10:07:28;17.13;;;3.17;;
13122;SDS011;6627;50.920;12.050;2024-01-27T10:10:15;15.87;;;3.40;;
13122;SDS011;6627;50.920;12.050;2024-01-27T10:12:54;13.30;;;2.97;;
13122;SDS011;6627;50.920;12.050;2024-01-27T10:15:28;15.77;;;3.43;;
13122;SDS011;6627;50.920;12.050;2024-01-27T10:18:12;12.80;;;3.20;;
13122;SDS011;6627;50.920;12.050;2024-01-27T10:20:42;9.90;;;2.90;;
13122;SDS011;6627;50.920;12.050;2024-01-27T10:23:11;10.80;;;3.30;;
13122;SDS011;6627;50.920;12.050;2024-01-27T10:25:42;14.27;;;2.87;;
13122;SDS011;6627;50.920;12.050;2024-01-27T10:28:12;17.50;;;2.77;;
13122;SDS011;6627;50.920;12.050;2024-01-27T10:30:40;11.00;;;3.20;;
13122;SDS011;6627;50.920;12.050;2024-01-27T10:33:08;17.03;;;3.23;;
13122;SDS011;6627;50.920;12.050;2024-01-27T10:35:38;13.50;;;2.90;;
13122;SDS011;6627;50.920;12.050;2024-01-27T10:38:07;9.43;;;3.27;;
13122;SDS011;6627;50.920;12.050;2024-01-27T10:40:35;13.90;;;3.57;;
13122;SDS011;6627;50.920;12.050;2024-01-27T10:43:03;13.77;;;3.30;;
13122;SDS011;6627;50.920;12.050;2024-01-27T10:45:34;6.90;;;2.47;;
13122;SDS011;6627;50.920;12.050;2024-01-27T10:48:04;12.03;;;3.00;;
13122;SDS011;6627;50.920;12.050;2024-01-27T10:50:38;13.30;;;2.70;;
13122;SDS011;6627;50.920;12.050;2024-01-27T10:53:27;9.47;;;2.50;;
13122;SDS011;6627;50.920;12.050;2024-01-27T10:56:12;11.07;;;3.13;;
13122;SDS011;6627;50.920;12.050;2024-01-27T10:58:41;11.00;;;2.73;;
13122;SDS011;6627;50.920;12.050;2024-01-27T11:01:13;11.93;;;3.03;;
13122;SDS011;6627;50.920;12.050;2024-01-27T11:03:46;12.73;;;2.53;;
13122;SDS011;6627;50.920;12.050;2024-01-27T11:06:34;11.63;;;2.53;;
13122;SDS011;6627;50.920;12.050;2024-01-27T11:09:18;12.10;;;2.47;;
13122;SDS011;6627;50.920;12.050;2024-01-27T11:11:47;13.87;;;3.17;;
13122;SDS011;6627;50.920;12.050;2024-01-27T11:14:26;13.93;;;3.03;;
13122;SDS011;6627;50.920;12.050;2024-01-27T11:16:55;11.37;;;2.57;;
13122;SDS011;6627;50.920;12.050;2024-01-27T11:19:24;15.97;;;3.07;;
13122;SDS011;6627;50.920;12.050;2024-01-27T11:21:59;8.13;;;2.53;;
13122;SDS011;6627;50.920;12.050;2024-01-27T11:24:30;11.13;;;2.77;;
13122;SDS011;6627;50.920;12.050;2024-01-27T11:27:06;13.57;;;2.50;;
13122;SDS011;6627;50.920;12.050;2024-01-27T11:29:34;9.37;;;2.73;;
13122;SDS011;6627;50.920;12.050;2024-01-27T11:32:02;13.80;;;2.77;;
13122;SDS011;6627;50.920;12.050;2024-01-27T11:34:40;16.33;;;2.90;;
13122;SDS011;6627;50.920;12.050;2024-01-27T11:37:30;9.23;;;2.63;;
13122;SDS011;6627;50.920;12.050;2024-01-27T11:40:18;13.50;;;2.60;;
13122;SDS011;6627;50.920;12.050;2024-01-27T11:43:05;13.03;;;2.90;;
13122;SDS011;6627;50.920;12.050;2024-01-27T11:45:54;13.60;;;2.87;;
13122;SDS011;6627;50.920;12.050;2024-01-27T11:48:23;9.07;;;1.90;;
13122;SDS011;6627;50.920;12.050;2024-01-27T11:51:03;13.47;;;2.30;;
13122;SDS011;6627;50.920;12.050;2024-01-27T11:53:36;10.17;;;2.43;;
13122;SDS011;6627;50.920;12.050;2024-01-27T11:56:06;9.07;;;2.50;;
13122;SDS011;6627;50.920;12.050;2024-01-27T11:58:35;9.30;;;2.50;;
13122;SDS011;6627;50.920;12.050;2024-01-27T12:01:02;5.90;;;2.30;;
13122;SDS011;6627;50.920;12.050;2024-01-27T12:03:41;12.27;;;2.70;;
13122;SDS011;6627;50.920;12.050;2024-01-27T12:06:09;8.17;;;2.63;;
13122;SDS011;6627;50.920;12.050;2024-01-27T12:08:37;8.40;;;2.50;;
13122;SDS011;6627;50.920;12.050;2024-01-27T12:11:17;6.77;;;2.50;;
13122;SDS011;6627;50.920;12.050;2024-01-27T12:13:45;12.87;;;2.47;;
13122;SDS011;6627;50.920;12.050;2024-01-27T12:16:13;14.20;;;2.43;;
13122;SDS011;6627;50.920;12.050;2024-01-27T12:18:43;9.37;;;2.67;;
13122;SDS011;6627;50.920;12.050;2024-01-27T12:21:22;7.80;;;2.20;;
13122;SDS011;6627;50.920;12.050;2024-01-27T12:23:51;8.17;;;2.50;;
13122;SDS011;6627;50.920;12.050;2024-01-27T12:26:25;9.73;;;2.60;;
13122;SDS011;6627;50.920;12.050;2024-01-27T12:29:07;6.80;;;1.93;;
13122;SDS011;6627;50.920;12.050;2024-01-27T12:31:34;10.07;;;2.50;;
13122;SDS011;6627;50.920;12.050;2024-01-27T12:34:02;11.00;;;2.43;;
13122;SDS011;6627;50.920;12.050;2024-01-27T12:36:31;13.47;;;3.03;;
13122;SDS011;6627;50.920;12.050;2024-01-27T12:39:01;13.50;;;2.90;;
13122;SDS011;6627;50.920;12.050;2024-01-27T12:41:50;10.43;;;2.70;;
13122;SDS011;6627;50.920;12.050;2024-01-27T12:44:18;7.33;;;2.20;;
13122;SDS011;6627;50.920;12.050;2024-01-27T12:46:45;9.07;;;2.37;;
13122;SDS011;6627;50.920;12.050;2024-01-27T12:49:16;7.50;;;2.27;;
13122;SDS011;6627;50.920;12.050;2024-01-27T12:52:04;9.40;;;2.40;;
13122;SDS011;6627;50.920;12.050;2024-01-27T12:54:32;8.50;;;2.30;;
13122;SDS011;6627;50.920;12.050;2024-01-27T12:57:01;9.60;;;2.50;;
13122;SDS011;6627;50.920;12.050;2024-01-27T12:59:29;10.77;;;2.67;;
13122;SDS011;6627;50.920;12.050;2024-01-27T13:01:57;15.73;;;3.00;;
13122;SDS011;6627;50.920;12.050;2024-01-27T13:04:26;10.00;;;2.50;;
13122;SDS011;6627;50.920;12.050;2024-01-27T13:06:53;12.37;;;2.57;;
13122;SDS011;6627;50.920;12.050;2024-01-27T13:09:40;10.07;;;2.50;;
13122;SDS011;6627;50.920;12.050;2024-01-27T13:12:28;9.23;;;2.37;;
13122;SDS011;6627;50.920;12.050;2024-01-27T13:15:13;11.07;;;2.77;;
13122;SDS011;6627;50.920;12.050;2024-01-27T13:17:40;8.50;;;2.23;;
13122;SDS011;6627;50.920;12.050;2024-01-27T13:20:11;10.60;;;2.30;;
13122;SDS011;6627;50.920;12.050;2024-01-27T13:22:42;10.80;;;2.50;;
13122;SDS011;6627;50.920;12.050;2024-01-27T13:25:30;7.17;;;1.97;;
13122;SDS011;6627;50.920;12.050;2024-01-27T13:28:14;8.53;;;2.27;;
13122;SDS011;6627;50.920;12.050;2024-01-27T13:30:43;7.63;;;2.23;;
13122;SDS011;6627;50.920;12.050;2024-01-27T13:33:12;7.23;;;2.13;;
13122;SDS011;6627;50.920;12.050;2024-01-27T13:35:59;10.00;;;2.23;;
13122;SDS011;6627;50.920;12.050;2024-01-27T13:38:27;5.73;;;1.73;;
13122;SDS011;6627;50.920;12.050;2024-01-27T13:40:57;9.07;;;2.60;;
13122;SDS011;6627;50.920;12.050;2024-01-27T13:43:36;14.90;;;2.87;;
13122;SDS011;6627;50.920;12.050;2024-01-27T13:46:04;13.80;;;2.80;;
13122;SDS011;6627;50.920;12.050;2024-01-27T13:48:44;9.60;;;2.70;;
13122;SDS011;6627;50.920;12.050;2024-01-27T13:51:27;9.57;;;2.33;;
13122;SDS011;6627;50.920;12.050;2024-01-27T13:53:57;8.50;;;2.53;;
13122;SDS011;6627;50.920;12.050;2024-01-27T13:56:25;14.33;;;2.90;;
13122;SDS011;6627;50.920;12.050;2024-01-27T13:58:56;7.83;;;2.60;;
13122;SDS011;6627;50.920;12.050;2024-01-27T14:01:25;5.67;;;2.10;;
13122;SDS011;6627;50.920;12.050;2024-01-27T14:03:53;8.07;;;2.37;;
13122;SDS011;6627;50.920;12.050;2024-01-27T14:06:23;8.50;;;2.50;;
13122;SDS011;6627;50.920;12.050;2024-01-27T14:08:51;8.03;;;2.57;;
13122;SDS011;6627;50.920;12.050;2024-01-27T14:11:32;10.07;;;2.77;;
13122;SDS011;6627;50.920;12.050;2024-01-27T14:14:07;11.53;;;2.27;;
13122;SDS011;6627;50.920;12.050;2024-01-27T14:16:37;11.97;;;2.83;;
13122;SDS011;6627;50.920;12.050;2024-01-27T14:19:24;9.27;;;2.77;;
13122;SDS011;6627;50.920;12.050;2024-01-27T14:21:54;9.50;;;2.20;;
13122;SDS011;6627;50.920;12.050;2024-01-27T14:24:22;7.10;;;2.43;;
13122;SDS011;6627;50.920;12.050;2024-01-27T14:27:05;7.03;;;2.53;;
13122;SDS011;6627;50.920;12.050;2024-01-27T14:29:51;8.77;;;2.63;;
13122;SDS011;6627;50.920;12.050;2024-01-27T14:32:20;7.50;;;2.73;;
13122;SDS011;6627;50.920;12.050;2024-01-27T14:34:55;9.40;;;2.40;;
13122;SDS011;6627;50.920;12.050;2024-01-27T14:37:27;8.13;;;2.40;;
13122;SDS011;6627;50.920;12.050;2024-01-27T14:39:55;9.87;;;2.40;;
13122;SDS011;6627;50.920;12.050;2024-01-27T14:42:29;11.93;;;3.17;;
13122;SDS011;6627;50.920;12.050;2024-01-27T14:44:58;11.50;;;2.63;;
13122;SDS011;6627;50.920;12.050;2024-01-27T14:47:36;10.57;;;2.30;;
13122;SDS011;6627;50.920;12.050;2024-01-27T14:50:04;7.80;;;2.10;;
13122;SDS011;6627;50.920;12.050;2024-01-27T14:52:32;8.67;;;2.57;;
13122;SDS011;6627;50.920;12.050;2024-01-27T14:55:02;12.70;;;2.53;;
13122;SDS011;6627;50.920;12.050;2024-01-27T14:57:30;11.03;;;2.80;;
13122;SDS011;6627;50.920;12.050;2024-01-27T15:00:13;11.00;;;2.73;;
13122;SDS011;6627;50.920;12.050;2024-01-27T15:02:43;9.47;;;2.80;;
13122;SDS011;6627;50.920;12.050;2024-01-27T15:05:30;11.13;;;2.90;;
13122;SDS011;6627;50.920;12.050;2024-01-27T15:08:02;9.50;;;2.60;;
13122;SDS011;6627;50.920;12.050;2024-01-27T15:10:44;7.67;;;2.80;;
13122;SDS011;6627;50.920;12.050;2024-01-27T15:13:32;11.23;;;4.47;;
13122;SDS011;6627;50.920;12.050;2024-01-27T15:16:02;9.93;;;3.03;;
13122;SDS011;6627;50.920;12.050;2024-01-27T15:18:39;8.83;;;2.73;;